Time;durP1;ratioP1;P1;durP2;ratioP2;P2;SDS_P1;SDS_P2;PMS_P1;PMS_P2;Temp;Humidity;BMP_temperature;BMP_pressure;BME280_temperature;BME280_humidity;BME280_pressure;Samples;Min_cycle;Max_cycle;Signal;HPM_P1;HPM_P2
2024/01/10 00:00:37;;;;;;;;;37.00;36.50;;;;;5.24;88.96;101955.31;2095315;28;45479;-69
2024/01/10 00:01:38;;;;;;;;;48.20;40.80;;;;;5.23;89.08;101953.53;2097598;28;46405;-70
2024/01/10 00:02:38;;;;;;;;;51.25;42.00;;;;;5.24;89.03;101954.44;2097362;28;46807;-69
2024/01/10 00:03:38;;;;;;;;;44.00;40.25;;;;;5.22;89.08;101945.63;2097480;28;45628;-68
2024/01/10 00:04:39;;;;;;;;;45.75;37.25;;;;;5.22;89.13;101949.16;2097535;28;46161;-69
2024/01/10 00:05:39;;;;;;;;;49.50;38.50;;;;;5.14;88.82;101936.69;2098123;28;46566;-69
2024/01/10 00:06:39;;;;;;;;;41.75;38.25;;;;;5.21;89.04;101947.38;2097393;28;44895;-68
2024/01/10 00:07:40;;;;;;;;;40.00;35.75;;;;;5.21;89.32;101954.38;2097093;28;46683;-68
2024/01/10 00:08:40;;;;;;;;;38.75;35.00;;;;;5.22;88.89;101945.63;2096999;28;45589;-68
2024/01/10 00:09:40;;;;;;;;;49.75;39.50;;;;;5.20;89.01;101945.56;2096465;28;46953;-70
2024/01/10 00:10:41;;;;;;;;;46.00;39.25;;;;;5.22;89.40;101945.63;2097657;28;45759;-69
2024/01/10 00:11:41;;;;;;;;;44.00;40.25;;;;;5.21;89.10;101944.75;2097721;28;45490;-70
2024/01/10 00:12:44;;;;;;;;;44.00;37.50;;;;;5.21;88.97;101947.38;2096803;28;46018;-70
2024/01/10 00:13:44;;;;;;;;;45.80;37.40;;;;;5.21;88.80;101939.47;2096692;28;46555;-70
2024/01/10 00:14:45;;;;;;;;;47.75;40.50;;;;;5.21;88.81;101942.09;2097146;28;46043;-69
2024/01/10 00:15:45;;;;;;;;;42.50;38.00;;;;;5.20;88.74;101936.78;2089502;28;45742;-68
2024/01/10 00:16:45;;;;;;;;;49.00;40.50;;;;;5.19;88.91;101946.44;2096198;28;45091;-70
2024/01/10 00:17:46;;;;;;;;;44.25;39.25;;;;;5.19;89.22;101946.44;2095716;28;45835;-70
2024/01/10 00:18:46;;;;;;;;;49.75;40.25;;;;;5.18;89.51;101949.03;2096599;28;47518;-70
2024/01/10 00:19:46;;;;;;;;;42.50;37.50;;;;;5.17;89.25;101942.00;2097454;28;46786;-70
2024/01/10 00:20:47;;;;;;;;;44.75;40.00;;;;;5.17;89.64;101942.00;2097378;28;46270;-70
2024/01/10 00:21:47;;;;;;;;;40.75;35.25;;;;;5.17;89.29;101948.16;2096987;28;46254;-70
2024/01/10 00:22:48;;;;;;;;;41.00;38.00;;;;;5.16;89.14;101951.63;2096030;28;46080;-70
2024/01/10 00:23:49;;;;;;;;;39.00;37.25;;;;;5.16;89.52;101949.00;2095029;28;46895;-68
2024/01/10 00:24:49;;;;;;;;;46.60;39.40;;;;;5.17;89.39;101948.16;2097192;28;46455;-67
2024/01/10 00:25:50;;;;;;;;;49.00;38.75;;;;;5.17;89.65;101950.78;2094982;28;45665;-70
2024/01/10 00:26:50;;;;;;;;;52.25;41.00;;;;;5.18;89.28;101949.91;2095061;28;45115;-70
2024/01/10 00:27:50;;;;;;;;;44.50;39.25;;;;;5.15;89.53;101941.97;2097228;28;45267;-69
2024/01/10 00:28:51;;;;;;;;;45.00;41.00;;;;;5.16;89.86;101945.50;2097294;28;46192;-68
2024/01/10 00:29:51;;;;;;;;;48.00;39.50;;;;;5.15;89.94;101944.59;2097274;28;45869;-69
2024/01/10 00:30:52;;;;;;;;;36.25;34.50;;;;;5.17;89.44;101947.25;2097129;28;45221;-69
2024/01/10 00:31:53;;;;;;;;;41.75;39.50;;;;;5.17;89.56;101947.25;2096714;28;46233;-68
2024/01/10 00:32:53;;;;;;;;;44.80;39.80;;;;;5.17;89.96;101935.00;2097304;28;45654;-68
2024/01/10 00:33:53;;;;;;;;;45.00;40.25;;;;;5.18;89.80;101939.38;2097368;28;45229;-68
2024/01/10 00:34:54;;;;;;;;;37.75;34.50;;;;;5.19;89.49;101937.66;2097242;28;46597;-70
2024/01/10 00:35:54;;;;;;;;;49.00;41.50;;;;;5.19;90.17;101945.53;2095899;28;45037;-69
2024/01/10 00:36:54;;;;;;;;;48.00;40.00;;;;;5.18;90.03;101949.91;2097027;28;45590;-68
2024/01/10 00:37:55;;;;;;;;;43.25;40.25;;;;;5.20;89.99;101947.31;2096635;28;46344;-68
2024/01/10 00:38:55;;;;;;;;;44.25;40.00;;;;;5.18;89.11;101943.78;2097305;28;46052;-68
2024/01/10 00:39:55;;;;;;;;;49.50;41.00;;;;;5.16;89.91;101938.47;2097371;28;44960;-70
2024/01/10 00:40:56;;;;;;;;;52.50;41.25;;;;;5.15;89.44;101947.22;2097417;28;46433;-69
2024/01/10 00:41:56;;;;;;;;;50.75;43.75;;;;;5.15;90.12;101946.34;2097011;28;46093;-69
2024/01/10 00:42:57;;;;;;;;;47.00;40.50;;;;;5.15;90.12;101935.81;2094898;28;45883;-68
2024/01/10 00:43:57;;;;;;;;;52.75;42.00;;;;;5.14;89.66;101937.56;2095442;28;45150;-68
2024/01/10 00:44:57;;;;;;;;;46.00;39.50;;;;;5.15;89.92;101941.09;2096883;28;46839;-68
2024/01/10 00:45:58;;;;;;;;;46.25;41.25;;;;;5.14;89.72;101937.56;2087391;28;46612;-68
2024/01/10 00:46:58;;;;;;;;;44.75;40.25;;;;;5.15;89.88;101936.72;2088846;28;47300;-69
2024/01/10 00:47:58;;;;;;;;;56.75;43.50;;;;;5.16;89.93;101937.59;2098331;28;46236;-69
2024/01/10 00:48:59;;;;;;;;;45.00;40.50;;;;;5.15;90.25;101933.19;2097428;28;45591;-69
2024/01/10 00:49:59;;;;;;;;;43.50;38.00;;;;;5.15;90.54;101933.19;2097535;28;46218;-69
2024/01/10 00:50:59;;;;;;;;;48.75;41.25;;;;;5.19;89.65;101935.00;2097035;28;46434;-71
2024/01/10 00:51:59;;;;;;;;;54.25;45.50;;;;;5.18;90.18;101936.75;2097270;28;46293;-69
2024/01/10 00:53:00;;;;;;;;;48.00;38.75;;;;;5.17;90.74;101931.47;2097499;28;46130;-71
2024/01/10 00:54:00;;;;;;;;;51.50;43.75;;;;;5.18;90.62;101935.88;2094963;28;45423;-69
2024/01/10 00:55:00;;;;;;;;;49.25;44.50;;;;;5.17;90.84;101935.00;2097317;28;45791;-69
2024/01/10 00:56:01;;;;;;;;;48.00;40.00;;;;;5.19;90.90;101932.38;2097619;28;45055;-68
2024/01/10 00:57:01;;;;;;;;;48.75;43.25;;;;;5.19;90.45;101932.38;2095181;28;46248;-69
2024/01/10 00:58:01;;;;;;;;;49.25;43.00;;;;;5.18;90.42;101931.50;2097244;28;46450;-68
2024/01/10 00:59:02;;;;;;;;;47.75;39.50;;;;;5.18;90.57;101931.50;2092783;28;45002;-69
2024/01/10 01:00:03;;;;;;;;;48.25;44.00;;;;;5.19;90.60;101927.13;2092635;28;46104;-69
2024/01/10 01:01:04;;;;;;;;;46.00;38.40;;;;;5.19;90.26;101920.09;2095616;28;47155;-71
2024/01/10 01:02:04;;;;;;;;;45.75;38.25;;;;;5.19;90.14;101929.75;2095939;28;46459;-69
2024/01/10 01:03:06;;;;;;;;;36.50;30.00;;;;;5.18;90.30;101931.50;2096949;28;45729;-69
2024/01/10 01:04:07;;;;;;;;;46.60;41.00;;;;;5.18;90.58;101928.88;2097192;28;46691;-68
2024/01/10 01:05:08;;;;;;;;;48.75;41.00;;;;;5.19;90.64;101925.38;2096788;28;46586;-69
2024/01/10 01:06:08;;;;;;;;;53.20;41.00;;;;;5.19;90.24;101919.22;2096802;28;47253;-70
2024/01/10 01:07:09;;;;;;;;;37.25;35.25;;;;;5.18;90.46;101922.72;2097211;28;45234;-69
2024/01/10 01:08:09;;;;;;;;;47.50;39.25;;;;;5.17;90.84;101920.94;2097115;28;46238;-70
2024/01/10 01:09:09;;;;;;;;;52.00;42.00;;;;;5.20;90.57;101919.25;2097349;28;46492;-69
2024/01/10 01:10:10;;;;;;;;;34.75;33.50;;;;;5.21;90.73;101921.06;2097210;28;45875;-69
2024/01/10 01:11:10;;;;;;;;;43.75;40.00;;;;;5.22;90.91;101922.81;2097578;28;45838;-69
2024/01/10 01:12:10;;;;;;;;;48.50;42.00;;;;;5.26;90.66;101921.13;2097150;28;45461;-69
2024/01/10 01:13:11;;;;;;;;;46.75;40.50;;;;;5.26;90.55;101915.88;2097149;28;46699;-69
2024/01/10 01:14:11;;;;;;;;;51.50;45.00;;;;;5.26;90.80;101915.88;2097097;28;45902;-70
2024/01/10 01:15:11;;;;;;;;;49.75;39.00;;;;;5.26;90.40;101919.38;2097251;28;46322;-69
2024/01/10 01:16:12;;;;;;;;;52.75;41.50;;;;;5.26;90.31;101914.13;2095568;28;45890;-69
2024/01/10 01:17:12;;;;;;;;;46.00;40.25;;;;;5.27;90.34;101915.00;2097055;28;45561;-69
2024/01/10 01:18:13;;;;;;;;;41.50;39.00;;;;;5.26;90.31;101919.38;2097069;28;46003;-69
2024/01/10 01:19:13;;;;;;;;;56.75;41.00;;;;;5.26;90.40;101924.66;2097211;28;45717;-69
2024/01/10 01:20:13;;;;;;;;;46.25;41.50;;;;;5.26;90.74;101919.38;2096806;28;45483;-68
2024/01/10 01:21:14;;;;;;;;;44.25;40.25;;;;;5.26;90.27;101922.03;2096622;28;45444;-68
2024/01/10 01:22:14;;;;;;;;;47.75;41.25;;;;;5.25;90.90;101914.97;2096367;28;46536;-68
2024/01/10 01:23:15;;;;;;;;;45.75;39.25;;;;;5.26;90.30;101923.75;2094901;28;45623;-68
2024/01/10 01:24:15;;;;;;;;;42.50;39.00;;;;;5.28;90.45;101924.69;2096930;28;46399;-68
2024/01/10 01:25:15;;;;;;;;;30.75;30.75;;;;;5.28;90.71;101922.03;2092844;28;46056;-70
2024/01/10 01:26:16;;;;;;;;;41.75;39.00;;;;;5.28;90.78;101920.28;2091950;28;46559;-71
2024/01/10 01:27:16;;;;;;;;;44.75;40.25;;;;;5.28;90.60;101914.16;2096654;28;46769;-69
2024/01/10 01:28:16;;;;;;;;;38.75;38.00;;;;;5.29;90.38;101919.44;2096257;28;46104;-69
2024/01/10 01:29:17;;;;;;;;;39.75;35.50;;;;;5.27;90.50;101912.38;2097236;28;45587;-69
2024/01/10 01:30:18;;;;;;;;;44.60;39.80;;;;;5.26;90.34;101911.50;2096231;28;46143;-67
2024/01/10 01:31:18;;;;;;;;;39.50;34.75;;;;;5.26;90.69;101913.22;2094838;28;47318;-69
2024/01/10 01:32:18;;;;;;;;;49.00;40.25;;;;;5.24;90.27;101915.84;2097778;28;45442;-69
2024/01/10 01:33:19;;;;;;;;;47.25;40.00;;;;;5.23;90.46;101914.06;2097218;28;45190;-69
2024/01/10 01:34:19;;;;;;;;;42.50;38.75;;;;;5.24;90.49;101918.47;2096305;28;46746;-68
2024/01/10 01:35:22;;;;;;;;;40.00;38.00;;;;;5.23;90.58;101918.44;2096752;28;45786;-68
2024/01/10 01:36:22;;;;;;;;;42.20;37.40;;;;;5.22;90.22;101921.94;2095547;28;45693;-68
2024/01/10 01:37:22;;;;;;;;;41.50;38.00;;;;;5.20;90.22;101911.34;2096746;28;46943;-70
2024/01/10 01:38:23;;;;;;;;;40.25;39.00;;;;;5.19;90.26;101913.97;2087798;28;46449;-70
2024/01/10 01:39:23;;;;;;;;;39.50;38.00;;;;;5.19;90.34;101919.22;2093461;28;46486;-69
2024/01/10 01:40:23;;;;;;;;;45.00;40.00;;;;;5.17;90.78;101913.94;2097739;28;46241;-68
2024/01/10 01:41:23;;;;;;;;;41.75;40.00;;;;;5.19;90.88;101917.47;2095975;28;46526;-69
2024/01/10 01:42:24;;;;;;;;;41.75;38.50;;;;;5.20;90.46;101921.00;2096251;28;46298;-70
2024/01/10 01:43:26;;;;;;;;;40.75;38.00;;;;;5.20;90.87;101919.25;2096904;28;45746;-69
2024/01/10 01:44:26;;;;;;;;;45.00;40.60;;;;;5.20;91.07;101914.00;2096434;28;46720;-68
2024/01/10 01:45:26;;;;;;;;;39.75;37.50;;;;;5.20;90.62;101914.00;2095532;28;45069;-70
2024/01/10 01:46:27;;;;;;;;;43.00;38.25;;;;;5.21;90.74;101915.78;2094189;28;45541;-70
2024/01/10 01:47:28;;;;;;;;;41.80;38.40;;;;;5.22;91.04;101924.56;2095202;28;46039;-69
2024/01/10 01:48:29;;;;;;;;;49.75;41.75;;;;;5.22;90.79;101921.94;2096534;28;45843;-69
2024/01/10 01:49:30;;;;;;;;;43.80;38.00;;;;;5.22;90.72;101924.56;2096132;28;46942;-69
2024/01/10 01:50:30;;;;;;;;;47.40;40.80;;;;;5.22;90.69;101920.19;2089456;28;46608;-70
2024/01/10 01:51:31;;;;;;;;;49.50;42.00;;;;;5.22;90.65;101919.31;2096620;28;46056;-68
2024/01/10 01:52:34;;;;;;;;;48.80;40.60;;;;;5.23;91.16;101914.06;2096956;28;45573;-69
2024/01/10 01:53:35;;;;;;;;;44.20;39.80;;;;;5.22;90.69;101914.03;2097109;28;45209;-68
2024/01/10 01:54:36;;;;;;;;;46.20;40.80;;;;;5.20;90.91;101918.38;2097094;28;45633;-69
2024/01/10 01:55:36;;;;;;;;;44.50;40.00;;;;;5.21;91.34;101920.16;2096545;28;45789;-69
2024/01/10 01:56:38;;;;;;;;;47.50;40.50;;;;;5.23;91.14;101915.81;2097409;28;45419;-68
2024/01/10 01:57:39;;;;;;;;;43.20;40.40;;;;;5.24;91.23;101918.47;2096697;28;46030;-71
2024/01/10 01:58:40;;;;;;;;;36.25;31.00;;;;;5.24;91.11;101917.59;2096215;28;47015;-69
2024/01/10 01:59:40;;;;;;;;;55.00;41.80;;;;;5.23;90.92;101918.44;2097090;28;45044;-68
2024/01/10 02:00:41;;;;;;;;;43.75;38.00;;;;;5.21;90.98;101915.78;2095589;28;46334;-69
2024/01/10 02:01:42;;;;;;;;;45.00;40.20;;;;;5.21;91.02;101918.41;2097013;28;46418;-69
2024/01/10 02:02:43;;;;;;;;;48.75;40.75;;;;;5.21;91.23;101921.06;2095670;28;46721;-70
2024/01/10 02:03:44;;;;;;;;;41.60;37.20;;;;;5.22;91.40;101920.19;2092047;28;45613;-70
2024/01/10 02:04:46;;;;;;;;;48.50;41.50;;;;;5.22;91.18;101917.56;2095902;28;45575;-70
2024/01/10 02:05:47;;;;;;;;;45.60;39.60;;;;;5.25;91.00;101920.25;2096425;28;45164;-70
2024/01/10 02:06:48;;;;;;;;;43.40;39.20;;;;;5.23;90.62;101919.34;2097507;28;45662;-69
2024/01/10 02:07:48;;;;;;;;;41.25;38.25;;;;;5.23;91.17;101918.44;2097052;28;46097;-69
2024/01/10 02:08:49;;;;;;;;;44.50;37.00;;;;;5.25;91.13;101920.25;2096578;28;46580;-70
2024/01/10 02:09:49;;;;;;;;;43.50;37.00;;;;;5.25;90.71;101912.34;2096868;28;45030;-70
2024/01/10 02:10:50;;;;;;;;;48.25;38.50;;;;;5.25;90.91;101917.63;2096267;28;46555;-69
2024/01/10 02:11:50;;;;;;;;;44.00;39.50;;;;;5.24;91.04;101910.56;2092132;28;46119;-70
2024/01/10 02:12:51;;;;;;;;;38.00;36.00;;;;;5.24;90.98;101910.56;2096880;28;46515;-71
2024/01/10 02:13:54;;;;;;;;;40.50;38.50;;;;;5.24;91.14;101915.84;2095698;28;46291;-70
2024/01/10 02:14:54;;;;;;;;;45.80;40.40;;;;;5.23;90.72;101908.81;2088293;28;45458;-70
2024/01/10 02:15:55;;;;;;;;;47.25;41.75;;;;;5.22;91.03;101909.66;2095875;28;47547;-70
2024/01/10 02:16:56;;;;;;;;;43.00;40.25;;;;;5.21;90.76;101910.53;2096728;28;45827;-70
2024/01/10 02:17:56;;;;;;;;;38.25;38.00;;;;;5.21;90.99;101904.38;2096807;28;45923;-68
2024/01/10 02:18:57;;;;;;;;;47.75;41.25;;;;;5.21;91.56;101912.28;2096510;28;46828;-69
2024/01/10 02:20:10;;;;;;;;;39.50;35.00;;;;;5.23;91.29;101919.34;2096829;28;45596;-69
2024/01/10 02:21:10;;;;;;;;;43.20;34.60;;;;;5.21;90.90;101913.16;2091768;28;46788;-69
2024/01/10 02:22:11;;;;;;;;;40.25;35.75;;;;;5.20;90.87;101914.00;2096721;28;46440;-68
2024/01/10 02:23:11;;;;;;;;;39.25;36.25;;;;;5.20;91.22;101914.00;2096273;28;45578;-68
2024/01/10 02:24:12;;;;;;;;;42.75;39.50;;;;;5.21;90.96;101913.16;2096622;28;45755;-68
2024/01/10 02:25:13;;;;;;;;;52.50;41.25;;;;;5.22;91.30;101904.41;2096301;28;46335;-67
2024/01/10 02:26:15;;;;;;;;;46.40;39.00;;;;;5.21;91.05;101910.53;2095672;28;45682;-68
2024/01/10 02:27:15;;;;;;;;;42.20;39.00;;;;;5.21;91.09;101913.16;2096792;28;45732;-69
2024/01/10 02:28:15;;;;;;;;;41.50;37.25;;;;;5.21;90.96;101914.91;2101170;28;46893;-69
2024/01/10 02:29:16;;;;;;;;;48.50;39.50;;;;;5.21;91.08;101907.91;2099955;27;46208;-68
2024/01/10 02:30:16;;;;;;;;;45.50;40.50;;;;;5.20;91.67;101910.47;2096642;28;46834;-69
2024/01/10 02:31:16;;;;;;;;;48.00;40.25;;;;;5.21;91.60;101904.38;2096502;28;46163;-68
2024/01/10 02:32:17;;;;;;;;;45.75;38.50;;;;;5.20;90.94;101899.94;2096600;28;46231;-69
2024/01/10 02:33:17;;;;;;;;;49.50;41.00;;;;;5.21;91.38;101907.00;2096145;28;45644;-69
2024/01/10 02:34:17;;;;;;;;;48.00;40.50;;;;;5.20;91.39;101906.09;2095715;28;46664;-68
2024/01/10 02:35:18;;;;;;;;;41.00;39.50;;;;;5.21;91.43;101899.13;2096514;28;46494;-69
2024/01/10 02:36:18;;;;;;;;;45.00;40.25;;;;;5.21;91.41;101892.09;2096526;28;46368;-68
2024/01/10 02:37:18;;;;;;;;;43.00;40.50;;;;;5.21;91.66;101896.47;2096547;28;46159;-69
2024/01/10 02:38:21;;;;;;;;;51.75;40.50;;;;;5.21;91.15;101907.91;2096288;28;45937;-68
2024/01/10 02:39:21;;;;;;;;;46.00;41.40;;;;;5.22;91.26;101907.03;2094422;28;46976;-69
2024/01/10 02:40:21;;;;;;;;;51.25;43.25;;;;;5.20;91.44;101900.84;2096990;28;46165;-69
2024/01/10 02:41:22;;;;;;;;;48.25;43.50;;;;;5.20;91.24;101905.22;2094186;28;45162;-68
2024/01/10 02:42:22;;;;;;;;;44.00;37.25;;;;;5.19;91.68;101901.69;2096254;28;45725;-67
2024/01/10 02:43:22;;;;;;;;;47.75;39.75;;;;;5.19;91.76;101901.69;2096974;28;45104;-67
2024/01/10 02:44:23;;;;;;;;;50.75;39.25;;;;;5.20;91.62;101899.94;2096284;28;46172;-68
2024/01/10 02:45:23;;;;;;;;;44.50;39.25;;;;;5.20;91.69;101902.56;2096491;28;46844;-68
2024/01/10 02:46:27;;;;;;;;;45.75;40.25;;;;;5.22;91.90;101896.50;2096721;28;45515;-68
2024/01/10 02:47:29;;;;;;;;;49.60;42.00;;;;;5.23;91.59;101902.66;2096792;28;46695;-69
2024/01/10 02:48:29;;;;;;;;;45.20;39.40;;;;;5.22;92.04;101893.00;2096928;28;45991;-69
2024/01/10 02:49:29;;;;;;;;;41.25;37.50;;;;;5.23;91.66;101900.03;2097377;28;46351;-69
2024/01/10 02:50:30;;;;;;;;;49.00;38.25;;;;;5.24;91.78;101901.78;2098117;28;45496;-68
2024/01/10 02:51:31;;;;;;;;;40.00;38.50;;;;;5.25;91.92;101896.56;2097587;28;46758;-68
2024/01/10 02:52:31;;;;;;;;;41.60;37.20;;;;;5.27;91.83;101891.31;2097760;28;47102;-70
2024/01/10 02:53:32;;;;;;;;;43.50;39.50;;;;;5.26;92.04;101892.19;2098104;28;46206;-69
2024/01/10 02:54:32;;;;;;;;;44.00;38.25;;;;;5.26;91.38;101890.44;2097651;28;46160;-68
2024/01/10 02:55:32;;;;;;;;;46.25;39.75;;;;;5.27;91.91;101891.31;2098244;28;45223;-69
2024/01/10 02:56:32;;;;;;;;;41.25;38.50;;;;;5.26;91.96;101884.28;2096813;28;45059;-69
2024/01/10 02:57:33;;;;;;;;;39.25;37.50;;;;;5.27;91.38;101883.44;2096054;28;45948;-70
2024/01/10 02:58:33;;;;;;;;;37.00;32.25;;;;;5.27;91.66;101880.78;2095215;28;45563;-68
2024/01/10 02:59:34;;;;;;;;;38.25;38.00;;;;;5.28;91.38;101879.94;2096220;28;45814;-68
2024/01/10 03:00:34;;;;;;;;;42.25;38.00;;;;;5.29;91.43;101885.22;2096010;28;45859;-69
2024/01/10 03:01:34;;;;;;;;;47.75;40.50;;;;;5.29;91.75;101879.97;2097325;28;46330;-68
2024/01/10 03:02:34;;;;;;;;;43.00;39.25;;;;;5.30;91.63;101886.09;2097250;28;45542;-68
2024/01/10 03:03:35;;;;;;;;;43.75;40.25;;;;;5.30;91.40;101881.72;2091155;28;46417;-69
2024/01/10 03:04:35;;;;;;;;;48.00;40.00;;;;;5.31;91.29;101885.25;2097376;28;45494;-69
2024/01/10 03:05:36;;;;;;;;;42.00;37.50;;;;;5.31;91.29;101885.25;2097919;28;47532;-69
2024/01/10 03:06:36;;;;;;;;;38.00;37.50;;;;;5.29;91.15;101879.97;2097518;28;47231;-69
2024/01/10 03:07:36;;;;;;;;;42.50;37.00;;;;;5.30;91.69;101880.84;2097824;28;45442;-70
2024/01/10 03:08:37;;;;;;;;;42.00;37.50;;;;;5.29;90.91;101876.44;2098547;28;46063;-69
2024/01/10 03:09:37;;;;;;;;;40.50;34.50;;;;;5.30;91.42;101883.47;2097949;28;45910;-69
2024/01/10 03:10:37;;;;;;;;;43.50;39.75;;;;;5.28;90.90;101883.44;2097858;28;44970;-68
2024/01/10 03:11:37;;;;;;;;;44.50;40.25;;;;;5.28;90.80;101880.81;2098951;28;46221;-68
2024/01/10 03:12:38;;;;;;;;;36.25;36.25;;;;;5.28;90.70;101887.81;2098538;28;45787;-68
2024/01/10 03:13:40;;;;;;;;;45.00;38.75;;;;;5.27;91.00;101886.94;2098126;28;45506;-68
2024/01/10 03:14:40;;;;;;;;;44.80;38.20;;;;;5.24;90.85;101884.25;2096360;28;46972;-68
2024/01/10 03:15:40;;;;;;;;;45.75;38.75;;;;;5.23;90.91;101884.25;2096037;28;48052;-68
2024/01/10 03:16:41;;;;;;;;;42.00;37.25;;;;;5.22;90.65;101883.34;2097574;28;46538;-68
2024/01/10 03:17:41;;;;;;;;;46.75;40.00;;;;;5.22;90.78;101888.63;2097865;28;46571;-68
2024/01/10 03:18:41;;;;;;;;;44.25;37.75;;;;;5.23;90.52;101885.13;2097827;28;45432;-69
2024/01/10 03:19:45;;;;;;;;;45.25;41.25;;;;;5.24;90.84;101883.38;2098021;28;45494;-70
2024/01/10 03:20:45;;;;;;;;;45.60;38.80;;;;;5.23;90.75;101878.97;2098040;28;45913;-69
2024/01/10 03:21:48;;;;;;;;;48.60;39.60;;;;;5.23;91.14;101886.88;2097820;28;45587;-69
2024/01/10 03:22:48;;;;;;;;;42.00;39.25;;;;;5.21;91.02;101878.06;2097652;28;46831;-67
2024/01/10 03:23:49;;;;;;;;;41.25;37.50;;;;;5.22;90.84;101885.97;2097359;28;46431;-68
2024/01/10 03:24:49;;;;;;;;;37.50;34.50;;;;;5.23;90.93;101884.25;2097533;28;47170;-68
2024/01/10 03:25:49;;;;;;;;;41.25;37.00;;;;;5.24;90.98;101883.38;2098151;28;46102;-69
2024/01/10 03:26:49;;;;;;;;;49.50;41.00;;;;;5.24;91.36;101886.00;2097878;28;45065;-70
2024/01/10 03:27:50;;;;;;;;;35.25;32.50;;;;;5.24;91.27;101880.75;2097847;28;46049;-68
2024/01/10 03:28:50;;;;;;;;;36.25;33.75;;;;;5.23;90.92;101881.59;2098095;28;45612;-69
2024/01/10 03:29:51;;;;;;;;;42.75;37.00;;;;;5.20;90.98;101874.50;2097760;28;45547;-68
2024/01/10 03:30:51;;;;;;;;;40.75;38.00;;;;;5.22;90.55;101875.47;2096579;28;45059;-69
2024/01/10 03:31:52;;;;;;;;;35.75;33.50;;;;;5.12;90.79;101875.25;2089075;28;45562;-67
2024/01/10 03:32:52;;;;;;;;;42.50;38.00;;;;;5.11;90.99;101879.63;2096781;28;46587;-68
2024/01/10 03:33:52;;;;;;;;;42.25;37.50;;;;;5.09;90.99;101881.34;2097763;28;46410;-69
2024/01/10 03:34:53;;;;;;;;;41.75;37.00;;;;;5.17;90.82;101874.47;2096126;28;45635;-68
2024/01/10 03:35:53;;;;;;;;;48.00;41.25;;;;;5.20;91.15;101881.53;2097339;28;46827;-69
2024/01/10 03:36:54;;;;;;;;;41.50;39.00;;;;;5.20;90.88;101879.78;2091373;28;45875;-68
2024/01/10 03:37:54;;;;;;;;;41.25;36.50;;;;;5.20;90.99;101874.50;2096440;28;45570;-68
2024/01/10 03:38:55;;;;;;;;;39.25;35.75;;;;;5.21;90.98;101878.06;2106190;27;47053;-67
2024/01/10 03:39:55;;;;;;;;;37.00;35.25;;;;;5.21;90.55;101878.94;2097909;27;45767;-69
2024/01/10 03:40:56;;;;;;;;;43.00;36.00;;;;;5.22;90.77;101872.81;2097611;28;45816;-69
2024/01/10 03:41:56;;;;;;;;;37.75;36.50;;;;;5.23;90.94;101877.22;2097691;28;46383;-69
2024/01/10 03:42:56;;;;;;;;;38.25;36.00;;;;;5.23;90.42;101874.59;2097670;28;45378;-68
2024/01/10 03:43:56;;;;;;;;;43.00;39.50;;;;;5.23;90.63;101871.97;2097618;28;46623;-70
2024/01/10 03:44:57;;;;;;;;;39.50;35.00;;;;;5.24;90.58;101875.47;2091058;28;45440;-70
2024/01/10 03:45:58;;;;;;;;;41.00;38.75;;;;;5.24;90.24;101871.09;2097533;28;45704;-68
2024/01/10 03:46:58;;;;;;;;;40.25;38.00;;;;;5.23;89.94;101874.59;2098231;28;46030;-69
2024/01/10 03:47:58;;;;;;;;;43.75;39.75;;;;;5.23;90.51;101869.34;2096704;28;45516;-69
2024/01/10 03:48:59;;;;;;;;;42.50;37.25;;;;;5.23;90.21;101869.34;2097682;28;46243;-69
2024/01/10 03:49:59;;;;;;;;;41.00;33.00;;;;;5.23;89.85;101874.59;2094512;28;45518;-70
2024/01/10 03:50:59;;;;;;;;;38.75;33.75;;;;;5.23;90.11;101869.34;2095191;28;45093;-68
2024/01/10 03:52:00;;;;;;;;;31.25;30.00;;;;;5.24;90.09;101875.47;2097949;28;45679;-71
2024/01/10 03:53:00;;;;;;;;;39.25;36.25;;;;;5.24;90.15;101871.09;2095554;28;45584;-68
2024/01/10 03:54:00;;;;;;;;;45.25;37.00;;;;;5.27;90.16;101867.63;2097339;28;46215;-69
2024/01/10 03:55:01;;;;;;;;;42.00;37.50;;;;;5.30;90.34;101872.94;2096829;28;46425;-68
2024/01/10 03:56:04;;;;;;;;;44.50;40.00;;;;;5.32;90.28;101863.31;2097001;28;46317;-68
2024/01/10 03:57:04;;;;;;;;;44.60;39.40;;;;;5.32;90.42;101869.47;2090527;28;46814;-70
2024/01/10 03:58:05;;;;;;;;;41.50;35.75;;;;;5.35;89.72;101870.41;2097436;28;46594;-70
2024/01/10 03:59:05;;;;;;;;;43.25;38.00;;;;;5.35;89.69;101865.16;2097452;28;46014;-69
2024/01/10 04:00:06;;;;;;;;;39.50;36.00;;;;;5.36;89.49;101865.19;2097564;28;46354;-70
2024/01/10 04:01:07;;;;;;;;;42.25;37.00;;;;;5.35;89.86;101865.16;2095528;28;46374;-69
2024/01/10 04:02:08;;;;;;;;;45.60;39.40;;;;;5.34;89.34;101863.38;2096963;28;46659;-69
2024/01/10 04:03:08;;;;;;;;;38.25;37.25;;;;;5.35;89.74;101870.41;2095129;28;45547;-70
2024/01/10 04:04:08;;;;;;;;;44.50;39.00;;;;;5.33;89.38;101870.38;2095916;28;46298;-70
2024/01/10 04:05:10;;;;;;;;;44.75;38.75;;;;;5.32;89.74;101868.59;2097454;28;46884;-69
2024/01/10 04:06:10;;;;;;;;;41.20;37.00;;;;;5.31;89.40;101872.09;2096831;28;45895;-69
2024/01/10 04:07:10;;;;;;;;;44.50;38.00;;;;;5.30;89.06;101871.19;2096926;28;46641;-70
2024/01/10 04:08:11;;;;;;;;;40.75;36.25;;;;;5.29;89.76;101876.44;2097533;28;46363;-68
2024/01/10 04:09:12;;;;;;;;;37.50;36.25;;;;;5.30;89.48;101867.69;2097479;28;46715;-70
2024/01/10 04:10:16;;;;;;;;;38.40;36.20;;;;;5.30;89.49;101870.31;2097323;28;46177;-68
2024/01/10 04:11:16;;;;;;;;;36.60;32.40;;;;;5.29;89.46;101863.28;2096996;28;45694;-70
2024/01/10 04:12:17;;;;;;;;;21.25;17.50;;;;;5.30;89.38;101867.69;2095520;28;46312;-68
2024/01/10 04:13:17;;;;;;;;;32.25;28.00;;;;;5.32;89.88;101865.97;2097498;28;46232;-69
2024/01/10 04:14:17;;;;;;;;;40.50;35.25;;;;;5.34;89.54;101868.66;2095927;28;46505;-68
2024/01/10 04:15:18;;;;;;;;;44.50;37.00;;;;;5.35;89.73;101865.16;2097455;28;45208;-68
2024/01/10 04:16:18;;;;;;;;;34.00;30.75;;;;;5.32;89.48;101864.22;2097711;28;45614;-68
2024/01/10 04:17:18;;;;;;;;;40.00;37.50;;;;;5.32;89.44;101864.22;2097141;28;46650;-68
2024/01/10 04:18:19;;;;;;;;;39.75;37.50;;;;;5.33;89.73;101865.09;2097054;28;45826;-69
2024/01/10 04:19:19;;;;;;;;;37.50;35.75;;;;;5.32;89.21;101860.69;2097241;28;46271;-67
2024/01/10 04:20:19;;;;;;;;;36.50;35.50;;;;;5.31;89.58;101862.44;2097467;28;45838;-68
2024/01/10 04:21:20;;;;;;;;;33.75;32.50;;;;;5.31;89.29;101866.81;2096077;28;45232;-67
2024/01/10 04:22:20;;;;;;;;;36.50;36.50;;;;;5.32;89.39;101860.69;2097153;28;46303;-68
2024/01/10 04:23:20;;;;;;;;;38.00;35.75;;;;;5.32;89.60;101860.69;2097152;28;45102;-67
2024/01/10 04:24:21;;;;;;;;;42.25;38.75;;;;;5.32;89.33;101851.06;2097393;28;45446;-68
2024/01/10 04:25:21;;;;;;;;;36.25;33.75;;;;;5.35;89.68;101855.50;2096523;28;45853;-68
2024/01/10 04:26:21;;;;;;;;;39.25;35.00;;;;;5.34;89.66;101856.38;2097939;28;46448;-68
2024/01/10 04:27:22;;;;;;;;;43.75;37.25;;;;;5.34;89.64;101855.50;2096509;28;47396;-68
2024/01/10 04:28:22;;;;;;;;;48.00;40.50;;;;;5.33;89.47;101857.19;2096743;28;46810;-69
2024/01/10 04:29:22;;;;;;;;;40.25;37.75;;;;;5.34;89.51;101853.75;2097562;28;44943;-69
2024/01/10 04:30:23;;;;;;;;;41.50;38.25;;;;;5.33;89.49;101854.56;2095412;28;46377;-68
2024/01/10 04:31:23;;;;;;;;;39.50;35.50;;;;;5.34;89.53;101853.75;2097414;28;45597;-67
2024/01/10 04:32:23;;;;;;;;;39.25;37.00;;;;;5.34;89.80;101852.84;2094185;28;46119;-68
2024/01/10 04:33:24;;;;;;;;;40.75;37.75;;;;;5.33;89.17;101854.56;2096131;28;45887;-67
2024/01/10 04:34:24;;;;;;;;;41.50;37.25;;;;;5.32;89.45;101853.69;2097674;28;45961;-68
2024/01/10 04:35:25;;;;;;;;;39.25;36.00;;;;;5.32;89.38;101853.69;2097125;28;46543;-69
2024/01/10 04:36:25;;;;;;;;;43.75;39.25;;;;;5.34;89.72;101852.84;2097311;28;45438;-68
2024/01/10 04:37:26;;;;;;;;;38.25;33.25;;;;;5.34;89.49;101850.22;2097243;28;44942;-69
2024/01/10 04:38:26;;;;;;;;;38.40;36.80;;;;;5.34;89.32;101851.09;2095968;28;45910;-69